createdAt,value
2019-04-05T00:01:10.970Z,53.52
2019-04-05T00:03:42.268Z,53.73
2019-04-05T00:06:13.480Z,54.32
2019-04-05T00:08:44.848Z,53.79
2019-04-05T00:11:16.012Z,53.11
2019-04-05T00:13:47.547Z,52.34
2019-04-05T00:16:18.770Z,51.70
2019-04-05T00:18:50.310Z,51.07
2019-04-05T00:21:22.032Z,51.33
2019-04-05T00:23:53.125Z,51.14
2019-04-05T00:26:24.378Z,50.80
2019-04-05T00:28:55.991Z,51.23
2019-04-05T00:31:28.431Z,51.44
2019-04-05T00:33:59.522Z,52.25
2019-04-05T00:36:30.987Z,53.30
2019-04-05T00:39:02.427Z,54.04
2019-04-05T00:41:35.173Z,54.88
2019-04-05T00:44:06.525Z,55.42
2019-04-05T00:46:37.724Z,56.01
2019-04-05T00:49:08.993Z,56.99
2019-04-05T00:51:40.453Z,56.98
2019-04-05T00:54:12.929Z,57.12
2019-04-05T00:56:44.283Z,57.60
2019-04-05T00:59:15.729Z,57.87
2019-04-05T01:01:46.927Z,57.98
2019-04-05T01:04:18.472Z,57.84
2019-04-05T01:06:49.683Z,58.48
2019-04-05T01:09:21.039Z,58.14
2019-04-05T01:11:52.303Z,58.61
2019-04-05T01:14:23.624Z,57.20
2019-04-05T01:16:54.771Z,56.88
2019-04-05T01:19:28.858Z,56.90
2019-04-05T01:22:00.360Z,56.37
2019-04-05T01:24:31.614Z,56.03
2019-04-05T01:27:03.006Z,56.28
2019-04-05T01:29:34.387Z,56.17
2019-04-05T01:32:05.749Z,56.33
2019-04-05T01:34:37.083Z,56.47
2019-04-05T01:37:08.261Z,56.66
2019-04-05T01:39:39.484Z,57.01
2019-04-05T01:42:10.994Z,56.78
2019-04-05T01:44:42.295Z,56.42
2019-04-05T01:47:13.517Z,55.45
2019-04-05T01:49:44.798Z,54.66
2019-04-05T01:52:15.918Z,54.41
2019-04-05T01:54:48.415Z,54.98
2019-04-05T01:57:19.827Z,54.75
2019-04-05T01:59:51.313Z,55.35
2019-04-05T02:02:22.567Z,55.61
2019-04-05T02:04:54.074Z,56.15
2019-04-05T02:07:25.444Z,57.09
2019-04-05T02:09:56.836Z,57.08
2019-04-05T02:12:29.045Z,57.94
2019-04-05T02:15:00.345Z,59.35
2019-04-05T02:17:31.661Z,62.03
2019-04-05T02:20:02.915Z,63.84
2019-04-05T02:22:34.586Z,63.40
2019-04-05T02:27:35.725Z,61.09
2019-04-05T02:30:06.934Z,61.80
2019-04-05T02:32:38.318Z,61.58
2019-04-05T02:35:09.691Z,64.94
2019-04-05T02:37:41.201Z,67.39
2019-04-05T02:40:14.451Z,67.99
2019-04-05T02:42:45.673Z,68.14
2019-04-05T02:45:18.553Z,67.73
2019-04-05T02:47:52.487Z,67.79
2019-04-05T02:50:25.257Z,67.55
2019-04-05T02:52:57.425Z,67.34
2019-04-05T02:55:29.790Z,67.52
2019-04-05T02:58:01.857Z,66.97
2019-04-05T03:00:34.028Z,67.02
2019-04-05T03:03:05.260Z,67.04
2019-04-05T03:05:37.263Z,66.53
2019-04-05T03:08:08.695Z,66.41
2019-04-05T03:10:46.931Z,66.17
2019-04-05T03:13:18.424Z,66.25
2019-04-05T03:15:49.810Z,65.78
2019-04-05T03:18:21.048Z,65.84
2019-04-05T03:20:52.388Z,65.33
2019-04-05T03:23:24.062Z,65.35
2019-04-05T03:25:57.500Z,65.51
2019-04-05T03:28:29.117Z,65.39
2019-04-05T03:31:04.240Z,65.45
2019-04-05T03:33:36.837Z,65.10
2019-04-05T03:36:11.743Z,64.93
2019-04-05T03:38:44.339Z,65.40
2019-04-05T03:41:15.588Z,65.52
2019-04-05T03:43:48.185Z,65.27
2019-04-05T03:46:19.480Z,65.49
2019-04-05T03:48:54.042Z,65.26
2019-04-05T03:51:26.019Z,64.86
2019-04-05T03:53:59.951Z,63.83
2019-04-05T03:56:33.325Z,63.48
2019-04-05T03:59:05.280Z,63.32
2019-04-05T04:01:36.560Z,62.44
2019-04-05T04:04:09.766Z,61.93
2019-04-05T04:06:43.049Z,61.88
2019-04-05T04:09:14.303Z,61.26
2019-04-05T04:11:45.714Z,61.19
2019-04-05T04:14:17.322Z,60.82
2019-04-05T04:16:48.481Z,60.46
2019-04-05T04:19:19.860Z,60.55
2019-04-05T04:22:11.135Z,60.15
2019-04-05T04:24:42.599Z,60.08
2019-04-05T04:27:18.839Z,60.00
2019-04-05T04:29:50.159Z,59.87
2019-04-05T04:32:21.516Z,59.39
2019-04-05T04:34:54.527Z,59.16
2019-04-05T04:37:28.127Z,58.40
2019-04-05T04:39:59.442Z,57.94
2019-04-05T04:42:31.912Z,57.54
2019-04-05T04:45:11.872Z,57.07
2019-04-05T04:47:37.330Z,56.95
2019-04-05T04:50:08.575Z,56.05
2019-04-05T04:52:41.551Z,55.64
2019-04-05T04:55:14.552Z,55.35
2019-04-05T04:57:47.561Z,54.87
2019-04-05T05:00:18.922Z,55.06
2019-04-05T05:02:50.218Z,55.05
2019-04-05T05:05:22.101Z,54.10
2019-04-05T05:07:55.348Z,54.15
2019-04-05T05:10:27.645Z,54.75
2019-04-05T05:13:01.839Z,55.51
2019-04-05T05:15:33.235Z,56.22
2019-04-05T05:18:07.032Z,56.22
2019-04-05T05:20:38.503Z,55.58
2019-04-05T05:23:11.582Z,55.43
2019-04-05T05:25:43.094Z,54.15
2019-04-05T05:28:14.579Z,53.07
2019-04-05T05:30:46.085Z,52.22
2019-04-05T05:33:18.522Z,51.82
2019-04-05T05:35:49.840Z,51.24
2019-04-05T05:38:21.023Z,50.56
2019-04-05T05:40:55.431Z,48.40
2019-04-05T05:43:27.613Z,48.52
2019-04-05T05:46:00.178Z,48.19
2019-04-05T05:48:32.506Z,47.58
2019-04-05T05:51:03.874Z,46.37
2019-04-05T05:53:35.422Z,45.61
2019-04-05T05:56:06.651Z,45.51
2019-04-05T05:58:39.260Z,45.44
2019-04-05T06:01:10.581Z,44.46
2019-04-05T06:03:42.098Z,44.18
2019-04-05T06:06:14.007Z,44.90
2019-04-05T06:08:45.139Z,45.08
2019-04-05T06:11:17.564Z,46.59
2019-04-05T06:13:49.174Z,45.97
2019-04-05T06:16:21.198Z,44.64
2019-04-05T06:18:52.692Z,42.78
2019-04-05T06:21:25.187Z,42.44
2019-04-05T06:23:56.589Z,42.08
2019-04-05T06:26:27.956Z,41.63
2019-04-05T06:28:59.306Z,41.27
2019-04-05T06:31:30.833Z,41.13
2019-04-05T06:34:03.206Z,40.58
2019-04-05T06:36:35.802Z,40.71
2019-04-05T06:39:08.236Z,39.46
2019-04-05T06:41:39.470Z,38.01
2019-04-05T06:44:11.097Z,37.83
2019-04-05T06:46:46.165Z,38.00
2019-04-05T06:49:17.276Z,37.78
2019-04-05T06:51:50.364Z,37.49
2019-04-05T06:54:21.752Z,36.32
2019-04-05T06:56:54.908Z,36.37
2019-04-05T06:59:37.204Z,37.83
2019-04-05T07:02:09.214Z,37.78
2019-04-05T07:04:41.441Z,37.85
2019-04-05T07:07:12.606Z,37.97
2019-04-05T07:09:44.167Z,38.16
2019-04-05T07:12:15.519Z,37.80
2019-04-05T07:14:51.457Z,38.44
2019-04-05T07:17:26.500Z,36.75
2019-04-05T07:19:57.925Z,36.04
2019-04-05T07:22:38.555Z,35.95
2019-04-05T07:25:02.953Z,35.77
2019-04-05T07:27:34.861Z,35.58
2019-04-05T07:30:08.241Z,35.51
2019-04-05T07:32:41.746Z,34.82
2019-04-05T07:35:14.347Z,34.41
2019-04-05T07:37:46.523Z,33.71
2019-04-05T07:40:19.134Z,33.46
2019-04-05T07:42:50.589Z,32.77
2019-04-05T07:45:23.099Z,32.33
2019-04-05T07:47:54.872Z,34.21
2019-04-05T07:50:26.834Z,32.36
2019-04-05T07:52:58.140Z,32.72
2019-04-05T07:55:29.893Z,33.63
2019-04-05T07:58:01.703Z,33.37
2019-04-05T08:00:46.566Z,32.32
2019-04-05T08:03:17.225Z,31.81
2019-04-05T08:05:48.300Z,31.21
2019-04-05T08:08:35.723Z,30.82
2019-04-05T08:11:07.138Z,30.84
2019-04-05T08:13:41.545Z,28.72
2019-04-05T08:16:13.318Z,29.53
2019-04-05T08:18:58.079Z,28.08
2019-04-05T08:21:29.222Z,27.97
2019-04-05T08:24:00.841Z,27.58
2019-04-05T08:26:35.533Z,28.14
2019-04-05T08:29:07.253Z,27.60
2019-04-05T08:31:40.535Z,27.46
2019-04-05T08:34:11.849Z,29.04
2019-04-05T08:36:43.052Z,28.03
2019-04-05T08:39:16.223Z,28.35
2019-04-05T08:41:48.917Z,27.61
2019-04-05T08:44:22.061Z,27.23
2019-04-05T08:46:54.553Z,27.25
2019-04-05T08:49:25.883Z,26.01
2019-04-05T08:51:57.293Z,25.74
2019-04-05T08:54:32.772Z,26.25
2019-04-05T08:57:35.202Z,27.03
2019-04-05T09:00:10.346Z,26.82
2019-04-05T09:02:42.790Z,29.13
2019-04-05T09:05:19.804Z,28.06
2019-04-05T09:07:51.193Z,27.25
2019-04-05T09:10:22.553Z,27.21
2019-04-05T09:12:53.745Z,27.68
2019-04-05T09:15:26.054Z,28.15
2019-04-05T09:17:57.481Z,27.52
2019-04-05T09:20:28.689Z,26.70
2019-04-05T09:22:59.830Z,27.54
2019-04-05T09:25:31.008Z,27.24
2019-04-05T09:28:02.850Z,26.39
2019-04-05T09:30:33.993Z,26.65
2019-04-05T09:33:05.262Z,26.39
2019-04-05T09:35:36.404Z,28.18
2019-04-05T09:38:10.685Z,26.98
2019-04-05T09:40:42.749Z,26.20
2019-04-05T09:43:15.895Z,25.99
2019-04-05T09:45:49.897Z,25.08
2019-04-05T09:48:21.581Z,25.24
2019-04-05T09:50:52.894Z,22.96
2019-04-05T09:53:26.460Z,22.80
2019-04-05T09:55:57.956Z,23.26
2019-04-05T09:58:31.487Z,24.42
2019-04-05T10:01:03.607Z,25.75
2019-04-05T10:03:36.629Z,23.70
2019-04-05T10:06:08.994Z,24.12
2019-04-05T10:08:40.590Z,24.26
2019-04-05T10:11:11.903Z,25.45
2019-04-05T10:13:43.305Z,25.02
2019-04-05T10:16:15.680Z,23.43
2019-04-05T10:18:46.948Z,22.89
2019-04-05T10:21:20.620Z,23.56
2019-04-05T10:23:51.858Z,23.10
2019-04-05T10:26:25.295Z,23.20
2019-04-05T10:28:56.626Z,22.87
2019-04-05T10:31:27.903Z,23.09
2019-04-05T10:33:59.220Z,22.52
2019-04-05T10:36:31.202Z,21.04
2019-04-05T10:39:08.583Z,20.42
2019-04-05T10:41:43.434Z,21.35
2019-04-05T10:44:16.227Z,19.84
2019-04-05T10:46:48.595Z,21.07
2019-04-05T10:49:19.826Z,20.80
2019-04-05T10:51:58.524Z,19.83
2019-04-05T10:54:31.325Z,20.17
2019-04-05T10:57:04.354Z,19.13
2019-04-05T10:59:38.524Z,19.10
2019-04-05T11:02:10.343Z,19.19
2019-04-05T11:04:42.672Z,18.97
2019-04-05T11:07:14.398Z,19.29
2019-04-05T11:09:46.328Z,18.96
2019-04-05T11:12:17.830Z,19.00
2019-04-05T11:14:49.706Z,18.79
2019-04-05T11:17:21.354Z,19.03
2019-04-05T11:19:53.724Z,18.87
2019-04-05T11:22:25.256Z,18.31
2019-04-05T11:24:57.200Z,18.61
2019-04-05T11:27:28.468Z,19.10
2019-04-05T11:29:59.862Z,18.66
2019-04-05T11:32:31.098Z,18.33
2019-04-05T11:35:02.519Z,18.78
2019-04-05T11:37:34.697Z,18.43
2019-04-05T11:40:08.387Z,18.14
2019-04-05T11:42:41.051Z,18.48
2019-04-05T11:45:12.716Z,17.98
2019-04-05T11:47:45.871Z,18.83
2019-04-05T11:50:17.506Z,18.84
2019-04-05T11:52:49.704Z,17.88
2019-04-05T11:55:21.908Z,18.55
2019-04-05T11:57:54.863Z,17.72
2019-04-05T12:00:43.658Z,17.77
2019-04-05T12:03:25.827Z,17.82
2019-04-05T12:05:58.507Z,17.69
2019-04-05T12:08:30.994Z,18.36
2019-04-05T12:11:02.927Z,17.06
2019-04-05T12:13:34.402Z,17.48
2019-04-05T12:16:10.351Z,17.84
2019-04-05T12:18:42.974Z,16.74
2019-04-05T12:21:20.641Z,16.85
2019-04-05T12:23:51.647Z,17.25
2019-04-05T12:26:23.212Z,17.24
2019-04-05T12:28:54.686Z,18.13
2019-04-05T12:31:26.859Z,17.77
2019-04-05T12:33:58.304Z,18.54
2019-04-05T12:36:32.294Z,17.80
2019-04-05T12:39:08.159Z,17.95
2019-04-05T12:41:41.858Z,18.28
2019-04-05T12:44:15.495Z,17.27
2019-04-05T12:46:46.895Z,17.41
2019-04-05T12:49:18.147Z,17.88
2019-04-05T12:51:50.238Z,17.56
2019-04-05T12:54:21.449Z,18.40
2019-04-05T12:56:54.282Z,16.96
2019-04-05T12:59:26.275Z,18.36
2019-04-05T13:01:59.722Z,16.61
2019-04-05T13:04:31.055Z,16.07
2019-04-05T13:07:03.334Z,15.98
2019-04-05T13:09:37.266Z,16.62
2019-04-05T13:12:08.707Z,16.56
2019-04-05T13:14:39.947Z,16.62
2019-04-05T13:17:11.094Z,16.69
2019-04-05T13:19:42.980Z,17.35
2019-04-05T13:22:14.197Z,18.31
2019-04-05T13:24:47.492Z,18.30
2019-04-05T13:27:18.847Z,18.93
2019-04-05T13:29:53.153Z,19.21
2019-04-05T13:32:25.925Z,19.25
2019-04-05T13:35:01.273Z,19.31
2019-04-05T13:37:34.422Z,19.88
2019-04-05T13:40:14.170Z,20.27
2019-04-05T13:43:08.107Z,20.29
2019-04-05T13:45:41.747Z,20.28
2019-04-05T13:48:13.235Z,20.45
2019-04-05T13:50:44.558Z,20.15
2019-04-05T13:53:15.689Z,19.05
2019-04-05T13:55:47.903Z,18.98
2019-04-05T13:58:19.242Z,18.68
2019-04-05T14:00:53.329Z,18.33
2019-04-05T14:03:25.803Z,18.54
2019-04-05T14:05:58.456Z,18.84
2019-04-05T14:08:32.842Z,18.66
2019-04-05T14:11:05.472Z,18.91
2019-04-05T14:13:42.801Z,18.77
2019-04-05T14:16:16.094Z,19.89
2019-04-05T14:18:49.806Z,20.23
2019-04-05T14:21:22.229Z,21.33
2019-04-05T14:23:55.288Z,21.90
2019-04-05T14:26:27.381Z,21.22
2019-04-05T14:29:03.409Z,21.53
2019-04-05T14:31:40.296Z,21.47
2019-04-05T14:34:15.839Z,21.93
2019-04-05T14:36:52.448Z,22.04
2019-04-05T14:39:26.639Z,22.29
2019-04-05T14:42:09.067Z,22.99
2019-04-05T14:44:32.151Z,23.67
2019-04-05T14:47:04.547Z,23.95
2019-04-05T14:49:36.633Z,23.85
2019-04-05T14:52:07.942Z,23.94
2019-04-05T14:54:39.728Z,23.67
2019-04-05T14:57:11.461Z,23.85
2019-04-05T14:59:47.957Z,24.22
2019-04-05T15:02:21.090Z,24.61
2019-04-05T15:05:13.512Z,24.15
2019-04-05T15:07:51.094Z,24.42
2019-04-05T15:10:25.295Z,24.57
2019-04-05T15:13:01.752Z,25.03
2019-04-05T15:15:33.962Z,24.68
2019-04-05T15:18:07.881Z,25.30
2019-04-05T15:20:39.332Z,25.07
2019-04-05T15:23:14.065Z,24.99
2019-04-05T15:25:49.430Z,24.90
2019-04-05T15:28:20.196Z,24.94
2019-04-05T15:30:55.685Z,24.84
2019-04-05T15:33:27.443Z,25.16
2019-04-05T15:36:00.175Z,25.50
2019-04-05T15:38:31.681Z,25.93
2019-04-05T15:41:07.121Z,26.28
2019-04-05T15:43:41.067Z,26.47
2019-04-05T15:46:13.045Z,27.52
2019-04-05T15:48:44.611Z,27.64
2019-04-05T15:51:16.409Z,28.01
2019-04-05T15:53:47.910Z,28.03
2019-04-05T15:56:21.753Z,27.87
2019-04-05T15:58:52.717Z,27.89
2019-04-05T16:01:23.880Z,28.01
2019-04-05T16:03:55.047Z,28.37
2019-04-05T16:06:26.296Z,28.53
2019-04-05T16:08:57.542Z,28.36
2019-04-05T16:11:31.760Z,28.76
2019-04-05T16:14:05.136Z,28.88
2019-04-05T16:16:36.662Z,29.16
2019-04-05T16:19:08.572Z,29.38
2019-04-05T16:21:39.940Z,29.60
2019-04-05T16:24:12.168Z,29.69
2019-04-05T16:26:43.385Z,30.10
2019-04-05T16:29:16.998Z,30.12
2019-04-05T16:31:49.656Z,30.32
2019-04-05T16:34:21.661Z,30.13
2019-04-05T16:36:53.175Z,30.35
2019-04-05T16:39:24.418Z,30.41
2019-04-05T16:41:59.143Z,30.22
2019-04-05T16:44:30.404Z,30.33
2019-04-05T16:47:01.639Z,30.08
2019-04-05T16:49:32.991Z,30.15
2019-04-05T16:52:04.273Z,29.95
2019-04-05T16:54:36.272Z,30.10
2019-04-05T16:57:08.964Z,30.28
2019-04-05T16:59:40.399Z,30.46
2019-04-05T17:02:11.612Z,30.44
2019-04-05T17:04:43.427Z,30.47
2019-04-05T17:07:17.013Z,30.66
2019-04-05T17:09:48.191Z,31.08
2019-04-05T17:12:21.244Z,31.21
2019-04-05T17:14:53.867Z,31.44
2019-04-05T17:17:37.154Z,31.78
2019-04-05T17:20:08.662Z,31.90
2019-04-05T17:22:40.214Z,31.87
2019-04-05T17:25:15.921Z,32.06
2019-04-05T17:27:49.109Z,31.99
2019-04-05T17:30:21.058Z,32.32
2019-04-05T17:32:55.391Z,32.52
2019-04-05T17:35:27.158Z,33.07
2019-04-05T17:38:03.327Z,33.41
2019-04-05T17:40:35.038Z,34.20
2019-04-05T17:43:06.432Z,35.25
2019-04-05T17:45:38.295Z,35.12
2019-04-05T17:48:09.541Z,35.23
2019-04-05T17:50:40.732Z,35.63
2019-04-05T17:53:13.376Z,36.30
2019-04-05T17:55:44.968Z,36.70
2019-04-05T17:58:19.951Z,36.87
2019-04-05T18:00:51.554Z,36.99
2019-04-05T18:03:23.060Z,36.98
2019-04-05T18:05:54.495Z,37.21
2019-04-05T18:08:26.202Z,37.21
2019-04-05T18:10:58.638Z,37.42
2019-04-05T18:13:30.832Z,37.76
2019-04-05T18:16:01.991Z,37.84
2019-04-05T18:18:34.139Z,38.10
2019-04-05T18:21:05.742Z,38.37
2019-04-05T18:23:36.957Z,38.62
2019-04-05T18:26:09.931Z,38.79
2019-04-05T18:28:42.079Z,38.98
2019-04-05T18:31:14.239Z,39.33
2019-04-05T18:33:48.786Z,39.16
2019-04-05T18:36:20.632Z,39.18
2019-04-05T18:38:52.241Z,39.14
2019-04-05T18:41:23.742Z,39.24
2019-04-05T18:43:59.084Z,39.33
2019-04-05T18:46:31.472Z,39.51
2019-04-05T18:49:02.782Z,39.77
2019-04-05T18:51:34.249Z,39.98
2019-04-05T18:54:07.153Z,40.34
2019-04-05T18:56:39.832Z,40.45
2019-04-05T18:59:11.841Z,40.51
2019-04-05T19:01:43.282Z,41.23
2019-04-05T19:04:15.747Z,41.50
2019-04-05T19:06:47.107Z,41.31
2019-04-05T19:09:19.265Z,40.26
2019-04-05T19:11:50.817Z,40.01
2019-04-05T19:14:22.993Z,39.90
2019-04-05T19:16:59.243Z,39.62
2019-04-05T19:19:32.447Z,39.32
2019-04-05T19:22:05.888Z,38.96
2019-04-05T19:24:38.572Z,38.59
2019-04-05T19:27:10.391Z,38.20
2019-04-05T19:29:42.150Z,38.21
2019-04-05T19:50:06.978Z,38.95
2019-04-05T19:52:38.230Z,39.15
2019-04-05T19:55:09.566Z,39.50
2019-04-05T19:57:41.144Z,39.84
2019-04-05T20:00:14.068Z,39.90
2019-04-05T20:02:47.378Z,40.09
2019-04-05T20:05:20.167Z,40.10
2019-04-05T20:07:52.027Z,40.77
2019-04-05T20:10:26.903Z,40.53
2019-04-05T20:12:59.458Z,39.99
2019-04-05T20:15:33.836Z,39.96
2019-04-05T20:18:07.950Z,40.29
2019-04-05T20:20:40.528Z,39.64
2019-04-05T20:23:12.007Z,40.11
2019-04-05T20:25:43.290Z,40.06
2019-04-05T20:28:16.822Z,39.61
2019-04-05T20:30:48.209Z,39.66
2019-04-05T20:33:19.720Z,40.28
2019-04-05T20:35:51.319Z,40.08
2019-04-05T20:38:22.615Z,40.07
2019-04-05T20:40:54.247Z,39.89
2019-04-05T20:43:25.764Z,40.25
2019-04-05T20:45:57.030Z,40.24
2019-04-05T20:48:28.570Z,40.62
2019-04-05T20:50:59.873Z,40.73
2019-04-05T20:53:31.266Z,40.96
2019-04-05T20:56:02.419Z,41.49
2019-04-05T20:58:33.981Z,42.49
2019-04-05T21:01:06.441Z,41.76
2019-04-05T21:03:37.787Z,45.37
2019-04-05T21:06:09.265Z,49.70
2019-04-05T21:08:40.497Z,56.12
2019-04-05T21:11:11.725Z,56.00
2019-04-05T21:13:44.219Z,56.21
2019-04-05T21:16:17.824Z,58.67
2019-04-05T21:18:49.044Z,61.39
2019-04-05T21:21:20.197Z,61.31
2019-04-05T21:23:51.475Z,61.08
2019-04-05T21:26:22.709Z,61.17
2019-04-05T21:29:08.189Z,61.02
2019-04-05T21:31:39.601Z,61.33
2019-04-05T21:34:11.198Z,61.45
2019-04-05T21:36:42.750Z,60.09
2019-04-05T21:39:13.992Z,57.68
2019-04-05T21:41:45.131Z,54.54
2019-04-05T21:44:16.486Z,53.04
2019-04-05T21:46:48.176Z,53.99
2019-04-05T21:49:19.724Z,53.94
2019-04-05T21:51:51.386Z,50.39
2019-04-05T21:54:22.907Z,48.46
2019-04-05T21:56:54.666Z,48.54
2019-04-05T21:59:26.382Z,48.19
2019-04-05T22:01:58.082Z,48.41
2019-04-05T22:04:29.956Z,48.66
2019-04-05T22:07:01.632Z,48.60
2019-04-05T22:09:33.346Z,49.31
2019-04-05T22:12:05.339Z,49.73
2019-04-05T22:14:36.757Z,50.35
2019-04-05T22:17:09.351Z,51.27
2019-04-05T22:19:41.109Z,51.37
2019-04-05T22:22:12.790Z,51.54
2019-04-05T22:24:44.628Z,51.45
2019-04-05T22:27:16.126Z,51.04
2019-04-05T22:29:47.824Z,50.66
2019-04-05T22:32:19.415Z,50.42
2019-04-05T22:34:51.163Z,50.74
2019-04-05T22:37:22.515Z,50.86
2019-04-05T22:39:53.990Z,50.79
2019-04-05T22:42:25.792Z,50.45
2019-04-05T22:44:57.687Z,50.57
2019-04-05T22:47:29.070Z,50.55
2019-04-05T22:50:00.615Z,50.43
2019-04-05T22:52:32.350Z,50.60
2019-04-05T22:55:10.909Z,50.25
2019-04-05T22:57:37.027Z,50.37
2019-04-05T23:00:08.985Z,51.04
2019-04-05T23:02:42.039Z,50.46
2019-04-05T23:05:13.544Z,50.31
2019-04-05T23:07:45.044Z,50.93
2019-04-05T23:10:16.705Z,50.72
2019-04-05T23:12:48.160Z,50.96
2019-04-05T23:15:20.767Z,49.83
2019-04-05T23:17:53.040Z,49.84
2019-04-05T23:20:24.409Z,50.22
2019-04-05T23:22:55.913Z,50.41
2019-04-05T23:25:27.283Z,50.79
2019-04-05T23:27:58.563Z,50.02
2019-04-05T23:30:33.062Z,49.92
2019-04-05T23:33:04.580Z,50.21
2019-04-05T23:35:36.134Z,50.72
2019-04-05T23:38:07.999Z,50.94
2019-04-05T23:40:39.587Z,50.99
2019-04-05T23:43:11.390Z,50.80
2019-04-05T23:45:42.874Z,51.04
2019-04-05T23:48:14.727Z,51.11
2019-04-05T23:50:46.373Z,51.21
2019-04-05T23:53:17.979Z,51.26
2019-04-05T23:55:49.691Z,51.28
2019-04-05T23:58:21.460Z,51.44
